Time;durP1;ratioP1;P1;durP2;ratioP2;P2;SDS_P1;SDS_P2;PMS_P1;PMS_P2;Temp;Humidity;BMP_temperature;BMP_pressure;BME280_temperature;BME280_humidity;BME280_pressure;Samples;Min_cycle;Max_cycle;Signal;HPM_P1;HPM_P2
2023/01/22 00:01:17;;;;;;;;;;;;;;;24.74;30.80;94916.09;5003908;28;1492;-69
2023/01/22 00:03:42;;;;;;;;;;;;;;;24.75;31.02;94920.41;4995155;28;1914;-70
2023/01/22 00:06:08;;;;;;;;;;;;;;;24.78;31.05;94927.97;5010541;28;1302;-69
2023/01/22 00:08:34;;;;;;;;;;;;;;;24.77;31.17;94934.41;4998695;28;1593;-69
2023/01/22 00:10:59;;;;;;;;;;;;;;;24.75;31.26;94942.69;4998241;28;1329;-69
2023/01/22 00:13:25;;;;;;;;;;;;;;;24.73;31.23;94944.75;5001451;28;1614;-70
2023/01/22 00:15:50;;;;;;;;;;;;;;;24.78;31.39;94942.19;5005977;28;1509;-69
2023/01/22 00:18:15;;;;;;;;;;;;;;;24.79;31.47;94925.06;5021864;28;1332;-70
2023/01/22 00:20:45;;;;;;;;;;;;;;;24.80;31.38;94932.06;4993033;28;1464;-70
2023/01/22 00:23:10;;;;;;;;;;;;;;;24.79;31.63;94933.13;5021902;28;1906;-69
2023/01/22 00:25:35;;;;;;;;;;;;;;;24.81;31.63;94936.38;5004166;28;1365;-71
2023/01/22 00:28:01;;;;;;;;;;;;;;;24.82;31.92;94929.16;5009002;28;1532;-71
2023/01/22 00:30:26;;;;;;;;;;;;;;;24.83;31.76;94936.16;5010514;28;1576;-72
2023/01/22 00:32:51;;;;;;;;;;;;;;;24.84;32.12;94943.94;4987633;28;1477;-70
2023/01/22 00:35:16;;;;;;;;;;;;;;;24.86;31.81;94930.31;5007157;28;1321;-67
2023/01/22 00:37:42;;;;;;;;;;;;;;;24.85;31.99;94928.69;5001946;28;1477;-68
2023/01/22 00:40:07;;;;;;;;;;;;;;;24.84;32.01;94927.84;5011161;28;1386;-68
2023/01/22 00:42:32;;;;;;;;;;;;;;;24.84;32.07;94940.47;4999209;28;1906;-69
2023/01/22 00:45:00;;;;;;;;;;;;;;;24.87;32.24;94954.25;5005787;28;1378;-70
2023/01/22 00:47:26;;;;;;;;;;;;;;;24.90;32.30;94952.94;4996849;28;1460;-68
2023/01/22 00:49:51;;;;;;;;;;;;;;;24.91;32.53;94946.53;5004705;28;1446;-68
2023/01/22 00:52:16;;;;;;;;;;;;;;;24.92;32.33;94950.84;4999211;28;1482;-68
2023/01/22 00:54:42;;;;;;;;;;;;;;;24.92;32.46;94946.28;5007147;28;1438;-68
2023/01/22 00:57:07;;;;;;;;;;;;;;;24.95;32.65;94953.06;5005089;28;1461;-69
2023/01/22 00:59:32;;;;;;;;;;;;;;;24.96;32.40;94956.53;5006009;28;1362;-69
2023/01/22 01:01:57;;;;;;;;;;;;;;;24.96;32.58;94965.44;5012114;28;1380;-69
2023/01/22 01:04:23;;;;;;;;;;;;;;;24.97;32.48;94985.03;5023021;28;1902;-69
2023/01/22 01:06:48;;;;;;;;;;;;;;;24.96;32.40;94978.03;5005613;28;1522;-69
2023/01/22 01:09:13;;;;;;;;;;;;;;;24.96;32.43;94978.84;5008643;28;1364;-69
2023/01/22 01:11:38;;;;;;;;;;;;;;;24.98;32.44;94984.78;5004725;28;1416;-69
2023/01/22 01:14:04;;;;;;;;;;;;;;;24.99;32.51;94983.75;5005888;28;1409;-69
2023/01/22 01:16:30;;;;;;;;;;;;;;;24.98;32.38;94986.66;5002908;28;1422;-69
2023/01/22 01:19:03;;;;;;;;;;;;;;;24.99;32.65;94970.34;5001422;28;1405;-69
2023/01/22 01:21:29;;;;;;;;;;;;;;;24.99;32.50;94969.50;5024050;28;1493;-69
2023/01/22 01:23:55;;;;;;;;;;;;;;;24.98;32.70;94970.56;5022838;28;1945;-67
2023/01/22 01:26:20;;;;;;;;;;;;;;;25.00;32.92;94984.56;5010406;28;1461;-69
2023/01/22 01:28:46;;;;;;;;;;;;;;;25.00;32.61;94996.13;5003866;28;1371;-67
2023/01/22 01:31:13;;;;;;;;;;;;;;;25.00;32.55;94992.63;5011908;28;1484;-67
2023/01/22 01:33:38;;;;;;;;;;;;;;;24.99;32.58;94997.19;5021130;28;1574;-67
2023/01/22 01:36:05;;;;;;;;;;;;;;;25.03;32.78;94997.53;5009263;28;1500;-66
2023/01/22 01:38:31;;;;;;;;;;;;;;;25.03;32.87;95002.88;5024723;28;1546;-71
2023/01/22 01:40:56;;;;;;;;;;;;;;;25.03;32.89;94997.53;4998322;28;1500;-68
2023/01/22 01:43:22;;;;;;;;;;;;;;;25.03;32.93;95001.00;5010688;28;1898;-69
2023/01/22 01:45:47;;;;;;;;;;;;;;;25.05;32.72;94995.44;5011547;28;1465;-68
2023/01/22 01:48:21;;;;;;;;;;;;;;;25.05;32.71;94995.44;4999701;28;1621;-68
2023/01/22 01:50:50;;;;;;;;;;;;;;;25.04;32.66;94999.13;4977872;28;1442;-69
2023/01/22 01:53:16;;;;;;;;;;;;;;;25.05;32.91;95008.84;5004295;28;1474;-68
2023/01/22 01:55:41;;;;;;;;;;;;;;;25.06;33.07;94997.03;5015059;28;1724;-68
2023/01/22 01:58:09;;;;;;;;;;;;;;;25.06;33.02;95000.53;4993651;28;1482;-67
2023/01/22 02:00:36;;;;;;;;;;;;;;;25.08;33.00;94997.63;5005043;28;1445;-67
2023/01/22 02:03:02;;;;;;;;;;;;;;;25.09;32.96;95005.44;4990835;28;1902;-68
2023/01/22 02:05:30;;;;;;;;;;;;;;;25.09;32.91;94996.56;5010480;28;1454;-67
2023/01/22 02:07:56;;;;;;;;;;;;;;;25.06;32.70;94984.44;5009869;28;1370;-67
2023/01/22 02:10:21;;;;;;;;;;;;;;;25.09;33.00;94993.91;5012377;28;1485;-67
2023/01/22 02:12:46;;;;;;;;;;;;;;;25.10;33.17;94995.50;5005056;28;1271;-68
2023/01/22 02:15:12;;;;;;;;;;;;;;;25.09;33.04;94994.69;4988349;28;1481;-67
2023/01/22 02:17:37;;;;;;;;;;;;;;;25.10;32.98;94996.34;4993108;28;1367;-67
2023/01/22 02:20:02;;;;;;;;;;;;;;;25.11;33.17;95003.34;4997372;28;1609;-67
2023/01/22 02:22:28;;;;;;;;;;;;;;;25.10;33.00;95011.63;5001643;28;1902;-67
2023/01/22 02:24:54;;;;;;;;;;;;;;;25.10;33.23;95022.34;5004421;28;1408;-69
2023/01/22 02:27:19;;;;;;;;;;;;;;;25.09;33.31;95021.53;4996802;28;1394;-67
2023/01/22 02:29:44;;;;;;;;;;;;;;;25.08;33.44;95014.56;4997456;28;1616;-67
2023/01/22 02:32:10;;;;;;;;;;;;;;;25.09;33.24;95016.19;5012303;28;1462;-68
2023/01/22 02:34:35;;;;;;;;;;;;;;;25.08;33.51;95022.59;5031792;28;1387;-68
2023/01/22 02:37:01;;;;;;;;;;;;;;;25.04;33.49;95018.75;4997669;28;1343;-68
2023/01/22 02:39:26;;;;;;;;;;;;;;;25.06;33.76;95016.66;5005903;28;1429;-69
2023/01/22 02:41:51;;;;;;;;;;;;;;;25.07;33.79;95017.47;5012901;28;1589;-69
2023/01/22 02:44:17;;;;;;;;;;;;;;;25.06;34.09;95011.28;5009353;28;1960;-69
2023/01/22 02:46:42;;;;;;;;;;;;;;;25.10;33.93;95017.00;5024804;28;1336;-72
2023/01/22 02:49:07;;;;;;;;;;;;;;;25.13;34.11;95020.03;5003827;28;1458;-70
2023/01/22 02:51:33;;;;;;;;;;;;;;;25.18;34.28;95024.72;5006410;28;1619;-71
2023/01/22 02:53:58;;;;;;;;;;;;;;;25.21;34.31;95021.56;5027848;28;1439;-69
2023/01/22 02:56:23;;;;;;;;;;;;;;;25.22;34.27;95025.09;5012531;28;1463;-77
2023/01/22 02:58:49;;;;;;;;;;;;;;;25.23;34.12;95030.22;5006418;28;1514;-74
2023/01/22 03:01:19;;;;;;;;;;;;;;;25.21;34.33;95028.81;5026605;28;1492;-74
2023/01/22 03:03:49;;;;;;;;;;;;;;;25.18;34.29;95030.09;5005307;28;1914;-75
2023/01/22 03:06:14;;;;;;;;;;;;;;;25.20;34.36;95033.38;5020526;28;1625;-76
2023/01/22 03:08:43;;;;;;;;;;;;;;;25.18;34.63;95034.66;5011284;28;1518;-76
2023/01/22 03:11:09;;;;;;;;;;;;;;;25.10;34.96;95030.41;5007530;28;1470;-76
2023/01/22 03:21:47;;;;;;;;;;;;;;;25.13;35.10;95038.00;5009271;28;1343;-74
2023/01/22 03:24:12;;;;;;;;;;;;;;;25.12;34.91;95036.38;5020531;28;1965;-78
2023/01/22 03:26:37;;;;;;;;;;;;;;;25.12;35.07;95037.19;5012526;28;1538;-77
2023/01/22 03:29:02;;;;;;;;;;;;;;;25.15;35.15;95043.19;5007938;28;1436;-76
2023/01/22 03:31:27;;;;;;;;;;;;;;;25.15;34.96;95035.94;5024685;28;1642;-77
2023/01/22 03:33:53;;;;;;;;;;;;;;;25.14;34.99;95037.00;4998152;28;1435;-76
2023/01/22 03:36:18;;;;;;;;;;;;;;;25.15;35.15;95038.63;5012434;28;1423;-75
2023/01/22 03:38:44;;;;;;;;;;;;;;;25.14;35.21;95028.94;5030322;28;1399;-75
2023/01/22 03:41:13;;;;;;;;;;;;;;;25.14;35.24;95026.25;5008231;28;1334;-72
2023/01/22 03:43:39;;;;;;;;;;;;;;;25.13;35.51;95027.25;5005517;28;1966;-73
2023/01/22 03:46:14;;;;;;;;;;;;;;;25.14;35.27;95034.31;5009569;28;1558;-76
2023/01/22 03:48:40;;;;;;;;;;;;;;;25.14;35.30;95034.31;5029274;28;1469;-76
2023/01/22 03:51:10;;;;;;;;;;;;;;;25.14;35.17;95031.63;5006644;28;1633;-76
2023/01/22 03:53:35;;;;;;;;;;;;;;;25.15;35.38;95030.56;5012516;28;1397;-76
2023/01/22 03:56:02;;;;;;;;;;;;;;;25.13;35.39;95032.63;5011489;28;1341;-76
2023/01/22 03:58:29;;;;;;;;;;;;;;;25.13;35.35;95038.00;5002065;28;1433;-77
2023/01/22 04:00:56;;;;;;;;;;;;;;;25.12;35.16;95039.06;5006380;28;1506;-75
2023/01/22 04:03:22;;;;;;;;;;;;;;;25.13;35.55;95043.38;5005578;28;1977;-76
2023/01/22 04:05:47;;;;;;;;;;;;;;;25.13;35.25;95035.31;5006195;28;1510;-76
2023/01/22 04:08:13;;;;;;;;;;;;;;;25.12;35.10;95039.06;5017690;28;1538;-77
2023/01/22 04:10:38;;;;;;;;;;;;;;;25.13;35.53;95038.84;4995622;28;1481;-76
2023/01/22 04:13:03;;;;;;;;;;;;;;;25.15;35.60;95040.50;5019380;28;1684;-74
2023/01/22 04:15:28;;;;;;;;;;;;;;;25.20;35.64;95054.84;5011572;28;1358;-75
2023/01/22 04:17:54;;;;;;;;;;;;;;;25.24;35.61;95060.56;5024763;28;1398;-75
2023/01/22 04:20:19;;;;;;;;;;;;;;;25.26;35.68;95063.84;5006535;28;1538;-77
2023/01/22 04:22:44;;;;;;;;;;;;;;;25.26;35.42;95061.97;5014667;28;1946;-76
2023/01/22 04:25:09;;;;;;;;;;;;;;;25.29;35.59;95064.19;5021247;28;1574;-76
2023/01/22 04:27:36;;;;;;;;;;;;;;;25.31;35.61;95067.47;5007840;28;1608;-77
2023/01/22 04:30:03;;;;;;;;;;;;;;;25.33;35.67;95059.16;4994940;28;1497;-76
2023/01/22 04:32:29;;;;;;;;;;;;;;;25.37;35.48;95065.72;4998244;28;1436;-77
2023/01/22 04:34:54;;;;;;;;;;;;;;;25.37;35.30;95075.63;5011616;28;1523;-75
2023/01/22 04:37:19;;;;;;;;;;;;;;;25.52;35.36;95074.09;5008902;28;1645;-75
2023/01/22 04:39:44;;;;;;;;;;;;;;;25.61;34.90;95079.13;5002276;28;1508;-75
2023/01/22 04:42:10;;;;;;;;;;;;;;;25.65;34.78;95088.34;5005448;28;1505;-76
2023/01/22 04:44:35;;;;;;;;;;;;;;;25.62;35.04;95092.31;5002451;28;1910;-77
2023/01/22 04:47:00;;;;;;;;;;;;;;;25.63;34.81;95085.88;4999258;28;1602;-73
2023/01/22 04:49:26;;;;;;;;;;;;;;;25.44;34.91;95081.69;4994666;28;1371;-74
2023/01/22 04:51:52;;;;;;;;;;;;;;;25.36;35.29;95093.63;4989987;28;1554;-74
2023/01/22 04:54:18;;;;;;;;;;;;;;;25.30;35.40;95098.06;4988381;28;1375;-75
2023/01/22 04:56:43;;;;;;;;;;;;;;;25.28;35.52;95094.78;5001977;28;1637;-75
2023/01/22 04:59:08;;;;;;;;;;;;;;;25.26;35.52;95102.25;5023069;28;1649;-74
2023/01/22 05:01:34;;;;;;;;;;;;;;;25.25;35.48;95107.88;5009842;28;1593;-74
2023/01/22 05:04:00;;;;;;;;;;;;;;;25.26;35.56;95106.81;4989291;28;1906;-73
2023/01/22 05:06:25;;;;;;;;;;;;;;;25.23;35.48;95113.44;5008344;28;1412;-75
2023/01/22 05:08:50;;;;;;;;;;;;;;;25.22;35.67;95117.19;5009047;28;1469;-74
2023/01/22 05:11:15;;;;;;;;;;;;;;;25.24;35.74;95125.81;5021510;28;1415;-76
2023/01/22 05:13:41;;;;;;;;;;;;;;;25.22;35.68;95127.13;4997082;28;1603;-76
2023/01/22 05:16:06;;;;;;;;;;;;;;;25.25;35.65;95127.47;5013349;28;1437;-76
2023/01/22 05:18:31;;;;;;;;;;;;;;;25.24;35.69;95125.81;5006841;28;1445;-76
2023/01/22 05:20:57;;;;;;;;;;;;;;;25.26;35.51;95139.03;5007192;28;1476;-74
2023/01/22 05:23:22;;;;;;;;;;;;;;;25.26;35.69;95145.22;5023507;28;1975;-76
2023/01/22 05:25:48;;;;;;;;;;;;;;;25.21;35.72;95139.72;5007440;28;1468;-71
2023/01/22 05:28:13;;;;;;;;;;;;;;;25.29;36.17;95150.13;4991878;28;1447;-76
2023/01/22 05:30:39;;;;;;;;;;;;;;;25.54;35.97;95151.78;5020494;28;1558;-73
2023/01/22 05:33:05;;;;;;;;;;;;;;;25.72;35.54;95154.31;5012171;28;1494;-77
2023/01/22 05:35:30;;;;;;;;;;;;;;;25.75;35.49;95161.91;5001258;28;1300;-75
2023/01/22 05:37:55;;;;;;;;;;;;;;;25.97;35.14;95167.56;5015638;28;1485;-72
2023/01/22 05:40:20;;;;;;;;;;;;;;;26.06;34.77;95172.56;5002503;28;1419;-73
2023/01/22 05:42:46;;;;;;;;;;;;;;;26.14;34.33;95180.28;5028361;28;1907;-74
2023/01/22 05:45:12;;;;;;;;;;;;;;;26.17;34.48;95183.31;4999419;28;1496;-73
2023/01/22 05:47:37;;;;;;;;;;;;;;;26.21;34.53;95189.03;4993651;28;1678;-75
2023/01/22 05:50:02;;;;;;;;;;;;;;;26.24;34.27;95184.00;4995617;28;1519;-74
2023/01/22 05:52:27;;;;;;;;;;;;;;;26.24;34.30;95194.75;5008123;28;1585;-74
2023/01/22 05:54:53;;;;;;;;;;;;;;;26.23;34.35;95190.41;4994037;28;1576;-75
2023/01/22 05:57:18;;;;;;;;;;;;;;;26.27;34.16;95198.84;5010567;28;1560;-75
2023/01/22 05:59:44;;;;;;;;;;;;;;;26.27;34.29;95198.00;5007457;28;1478;-75
2023/01/22 06:02:09;;;;;;;;;;;;;;;26.26;34.03;95197.19;4999499;28;1500;-75
2023/01/22 06:04:34;;;;;;;;;;;;;;;26.29;34.17;95201.28;5010166;28;1914;-72
2023/01/22 06:06:59;;;;;;;;;;;;;;;26.30;34.30;95203.75;5009266;28;1708;-73
2023/01/22 06:09:25;;;;;;;;;;;;;;;26.30;34.09;95206.44;5011597;28;1355;-73
2023/01/22 06:11:50;;;;;;;;;;;;;;;26.29;34.26;95212.84;5020890;28;1446;-74
2023/01/22 06:14:16;;;;;;;;;;;;;;;26.29;34.13;95223.63;4999520;28;1286;-75
2023/01/22 06:16:42;;;;;;;;;;;;;;;26.30;34.03;95219.91;5013424;28;1547;-75
2023/01/22 06:19:08;;;;;;;;;;;;;;;26.29;33.86;95220.94;5007263;28;1537;-76
2023/01/22 06:21:33;;;;;;;;;;;;;;;26.30;34.02;95224.44;4993794;28;1382;-75
2023/01/22 06:23:58;;;;;;;;;;;;;;;26.22;33.82;95222.94;4996534;28;1967;-72
2023/01/22 06:26:23;;;;;;;;;;;;;;;25.84;34.26;95240.34;5024804;28;1510;-74
2023/01/22 06:28:49;;;;;;;;;;;;;;;25.69;34.60;95235.41;5010194;28;1381;-74
2023/01/22 06:31:14;;;;;;;;;;;;;;;25.56;34.91;95239.16;5006730;28;1557;-74
2023/01/22 06:33:40;;;;;;;;;;;;;;;25.48;35.11;95242.16;5001442;28;1541;-74
2023/01/22 06:36:05;;;;;;;;;;;;;;;25.46;34.98;95246.13;5004979;28;1501;-73
2023/01/22 06:38:31;;;;;;;;;;;;;;;25.45;35.15;95247.19;4996488;28;1398;-72
2023/01/22 06:40:57;;;;;;;;;;;;;;;25.60;35.86;95250.25;4993231;28;1536;-75
2023/01/22 06:43:23;;;;;;;;;;;;;;;25.77;36.02;95248.50;4992822;28;1906;-75
2023/01/22 06:45:48;;;;;;;;;;;;;;;25.87;35.77;95253.34;4996962;28;1564;-75
2023/01/22 06:48:14;;;;;;;;;;;;;;;25.87;35.02;95257.88;5010656;28;1394;-75
2023/01/22 06:50:39;;;;;;;;;;;;;;;25.82;35.25;95258.56;5004606;28;1525;-77
2023/01/22 06:53:04;;;;;;;;;;;;;;;25.87;34.99;95263.25;5008404;28;1366;-77
2023/01/22 06:55:29;;;;;;;;;;;;;;;25.86;35.11;95265.13;5009374;28;1568;-77
2023/01/22 06:57:55;;;;;;;;;;;;;;;25.84;34.96;95271.78;4993754;28;1626;-78
2023/01/22 07:00:20;;;;;;;;;;;;;;;25.85;35.39;95268.88;4999459;28;1480;-79
2023/01/22 07:02:46;;;;;;;;;;;;;;;25.87;35.21;95274.84;5011970;28;1922;-78
2023/01/22 07:05:11;;;;;;;;;;;;;;;25.87;35.41;95280.22;5028270;28;1465;-78
2023/01/22 07:07:36;;;;;;;;;;;;;;;25.73;34.81;95276.91;5004630;28;1445;-72
2023/01/22 07:10:02;;;;;;;;;;;;;;;25.64;35.08;95275.59;5007739;28;1460;-73
2023/01/22 07:12:27;;;;;;;;;;;;;;;25.60;35.12;95276.28;5015856;28;1391;-73
2023/01/22 07:14:53;;;;;;;;;;;;;;;25.56;35.27;95284.00;5012275;28;1662;-74
2023/01/22 07:17:18;;;;;;;;;;;;;;;25.54;35.43;95288.78;5021360;28;1387;-71
2023/01/22 07:19:43;;;;;;;;;;;;;;;24.25;31.14;95278.19;4995972;28;1484;-72
2023/01/22 07:22:08;;;;;;;;;;;;;;;23.33;31.55;95278.69;4991364;28;1442;-72
2023/01/22 07:24:34;;;;;;;;;;;;;;;22.74;31.86;95281.66;5004256;28;1898;-72
2023/01/22 07:27:00;;;;;;;;;;;;;;;22.34;31.80;95281.81;5026702;28;1348;-72
2023/01/22 07:29:25;;;;;;;;;;;;;;;22.08;32.33;95286.13;5006844;28;1488;-72
2023/01/22 07:31:50;;;;;;;;;;;;;;;21.91;32.31;95277.72;4997526;28;1318;-71
2023/01/22 07:34:15;;;;;;;;;;;;;;;21.87;32.16;95286.38;5005468;28;1512;-72
2023/01/22 07:36:41;;;;;;;;;;;;;;;21.92;32.19;95295.44;5000196;28;1516;-72
2023/01/22 07:39:06;;;;;;;;;;;;;;;21.73;31.96;95297.06;5016781;28;1352;-72
2023/01/22 07:41:31;;;;;;;;;;;;;;;21.63;31.68;95302.00;5010525;28;1554;-72
2023/01/22 07:43:58;;;;;;;;;;;;;;;21.47;31.87;95297.06;4998540;28;1902;-73
2023/01/22 07:46:24;;;;;;;;;;;;;;;21.39;32.15;95302.59;5011734;28;1588;-71
2023/01/22 07:48:49;;;;;;;;;;;;;;;21.18;32.11;95304.38;5009841;28;1547;-72
2023/01/22 07:51:14;;;;;;;;;;;;;;;21.17;31.98;95316.06;5011746;28;1428;-71
2023/01/22 07:53:41;;;;;;;;;;;;;;;21.18;32.10;95312.38;5000077;28;1546;-70
2023/01/22 07:56:06;;;;;;;;;;;;;;;21.36;31.85;95310.97;4999388;28;1353;-72
2023/01/22 07:58:32;;;;;;;;;;;;;;;21.32;31.83;95316.72;5013473;28;1397;-72
2023/01/22 08:00:57;;;;;;;;;;;;;;;21.34;31.74;95314.69;5011245;28;1298;-72
2023/01/22 08:03:22;;;;;;;;;;;;;;;21.33;31.70;95314.88;4995849;28;1973;-72
2023/01/22 08:05:48;;;;;;;;;;;;;;;21.47;31.59;95323.75;5000750;28;1382;-70
2023/01/22 08:08:14;;;;;;;;;;;;;;;21.47;31.53;95321.09;4995709;28;1527;-73
2023/01/22 08:10:40;;;;;;;;;;;;;;;21.45;31.43;95326.63;5017497;28;1436;-72
2023/01/22 08:13:05;;;;;;;;;;;;;;;21.47;31.80;95327.25;5030203;28;1163;-71
2023/01/22 08:15:31;;;;;;;;;;;;;;;21.59;31.59;95330.13;5023388;28;1425;-71
2023/01/22 08:17:57;;;;;;;;;;;;;;;21.47;32.36;95339.78;4985821;28;1509;-70
2023/01/22 08:20:22;;;;;;;;;;;;;;;21.50;33.28;95339.34;5012846;28;1445;-74
2023/01/22 08:22:47;;;;;;;;;;;;;;;21.52;32.30;95342.66;5015221;28;1906;-69
2023/01/22 08:25:13;;;;;;;;;;;;;;;21.43;31.91;95341.19;5029816;28;1520;-70
2023/01/22 08:27:38;;;;;;;;;;;;;;;21.02;32.23;95342.09;5030132;28;1371;-70
2023/01/22 08:30:04;;;;;;;;;;;;;;;20.80;32.57;95344.84;5005050;28;1092;-70
2023/01/22 08:32:30;;;;;;;;;;;;;;;20.59;32.75;95340.47;5014636;28;871;-71
2023/01/22 08:34:55;;;;;;;;;;;;;;;20.41;33.19;95346.28;5029811;28;1338;-70
2023/01/22 08:37:21;;;;;;;;;;;;;;;20.36;33.15;95342.56;4994596;28;1648;-70
2023/01/22 08:39:46;;;;;;;;;;;;;;;20.31;33.42;95337.00;4996817;28;1402;-69
2023/01/22 08:42:11;;;;;;;;;;;;;;;20.26;33.53;95342.06;4999548;28;1548;-71
2023/01/22 08:44:37;;;;;;;;;;;;;;;20.21;33.73;95340.03;4993439;28;1963;-70
2023/01/22 08:47:02;;;;;;;;;;;;;;;20.45;33.53;95336.88;4994456;28;1453;-70
2023/01/22 08:49:29;;;;;;;;;;;;;;;20.65;33.76;95345.00;4998528;28;1488;-70
2023/01/22 08:51:55;;;;;;;;;;;;;;;21.26;33.82;95344.22;5016197;28;1424;-70
2023/01/22 08:54:20;;;;;;;;;;;;;;;21.71;33.67;95344.50;4994120;28;1565;-70
2023/01/22 08:56:46;;;;;;;;;;;;;;;22.02;32.99;95349.25;5012378;28;1461;-70
2023/01/22 08:59:12;;;;;;;;;;;;;;;22.29;32.95;95348.44;5029048;28;1424;-70
2023/01/22 09:01:37;;;;;;;;;;;;;;;22.51;32.62;95347.16;5003710;28;1567;-70
2023/01/22 09:04:04;;;;;;;;;;;;;;;22.65;32.55;95347.94;4983984;28;1915;-70
2023/01/22 09:06:29;;;;;;;;;;;;;;;22.75;32.59;95336.81;4994127;28;1535;-68
2023/01/22 09:08:55;;;;;;;;;;;;;;;22.88;32.46;95342.09;5009308;28;1307;-70
2023/01/22 09:11:21;;;;;;;;;;;;;;;23.03;32.34;95334.66;4995685;28;1538;-70
2023/01/22 09:13:46;;;;;;;;;;;;;;;23.16;32.72;95340.97;5004187;28;1853;-70
2023/01/22 09:16:11;;;;;;;;;;;;;;;23.19;32.54;95338.69;4989453;28;1452;-70
2023/01/22 09:18:40;;;;;;;;;;;;;;;23.20;32.62;95335.00;5009174;28;1635;-71
2023/01/22 09:21:06;;;;;;;;;;;;;;;23.23;32.57;95333.75;4996781;28;1596;-71
2023/01/22 09:23:31;;;;;;;;;;;;;;;23.26;32.36;95334.16;5014511;28;1902;-71
2023/01/22 09:25:56;;;;;;;;;;;;;;;23.31;32.39;95330.84;4988480;28;1448;-71
2023/01/22 09:28:21;;;;;;;;;;;;;;;23.33;32.54;95344.81;4993472;28;1523;-71
2023/01/22 09:30:47;;;;;;;;;;;;;;;23.38;32.54;95336.13;4994035;28;1452;-71
2023/01/22 09:33:12;;;;;;;;;;;;;;;23.50;32.75;95337.09;4994094;28;1558;-69
2023/01/22 09:35:37;;;;;;;;;;;;;;;23.76;33.96;95336.09;4993831;28;862;-70
2023/01/22 09:38:04;;;;;;;;;;;;;;;23.92;34.74;95335.56;4983369;28;1549;-71
2023/01/22 09:40:29;;;;;;;;;;;;;;;23.97;34.40;95337.63;4994094;28;847;-71
2023/01/22 09:43:02;;;;;;;;;;;;;;;23.70;33.71;95337.78;4993331;28;1902;-72
2023/01/22 09:45:27;;;;;;;;;;;;;;;23.71;34.05;95339.47;4992399;28;1307;-72
2023/01/22 09:47:58;;;;;;;;;;;;;;;23.73;34.17;95321.28;5004686;28;1373;-71
2023/01/22 09:50:25;;;;;;;;;;;;;;;23.77;34.11;95324.38;5003427;28;1579;-72
2023/01/22 09:52:51;;;;;;;;;;;;;;;23.77;34.02;95329.72;4992388;28;1547;-72
2023/01/22 09:55:19;;;;;;;;;;;;;;;23.80;33.70;95329.28;5001616;28;1460;-72
2023/01/22 09:57:45;;;;;;;;;;;;;;;23.81;33.48;95324.75;5003065;28;1266;-72
2023/01/22 10:00:19;;;;;;;;;;;;;;;23.83;33.56;95323.50;4987740;28;1593;-71
2023/01/22 10:02:51;;;;;;;;;;;;;;;23.85;33.43;95317.91;4989179;28;1922;-71
2023/01/22 10:05:17;;;;;;;;;;;;;;;23.87;33.58;95323.88;4993442;28;790;-72
2023/01/22 10:07:46;;;;;;;;;;;;;;;23.87;33.48;95324.69;4992941;28;1667;-71
2023/01/22 10:10:21;;;;;;;;;;;;;;;23.89;33.27;95325.31;5006044;28;1539;-72
2023/01/22 10:12:54;;;;;;;;;;;;;;;23.92;33.26;95324.03;4986555;28;1473;-72
2023/01/22 10:15:21;;;;;;;;;;;;;;;23.94;33.31;95321.97;5001605;28;1568;-73
2023/01/22 10:17:46;;;;;;;;;;;;;;;23.95;33.00;95326.28;4993403;28;865;-72
2023/01/22 10:20:13;;;;;;;;;;;;;;;23.95;32.95;95323.59;4993187;28;1322;-71
2023/01/22 10:22:38;;;;;;;;;;;;;;;23.97;32.89;95319.66;4983491;28;1914;-72
2023/01/22 10:25:04;;;;;;;;;;;;;;;23.97;32.93;95314.31;5010743;28;1417;-73
2023/01/22 10:27:38;;;;;;;;;;;;;;;24.00;32.74;95319.22;5008025;28;1394;-71
2023/01/22 10:30:07;;;;;;;;;;;;;;;24.00;32.80;95318.41;4982169;28;1259;-71
2023/01/22 10:32:33;;;;;;;;;;;;;;;24.00;33.03;95318.41;5006560;28;1538;-71
2023/01/22 10:34:58;;;;;;;;;;;;;;;24.01;32.75;95325.41;4998794;28;1540;-71
2023/01/22 10:37:23;;;;;;;;;;;;;;;24.00;32.68;95319.22;5027913;28;1198;-71
2023/01/22 10:39:51;;;;;;;;;;;;;;;24.00;32.59;95327.28;5016805;28;1375;-72
2023/01/22 10:42:21;;;;;;;;;;;;;;;24.02;32.57;95335.06;5002940;28;1330;-72
2023/01/22 10:44:47;;;;;;;;;;;;;;;24.02;32.68;95332.41;4991615;28;1894;-72
2023/01/22 10:47:19;;;;;;;;;;;;;;;24.01;32.72;95336.13;5007184;28;1641;-72
2023/01/22 10:49:45;;;;;;;;;;;;;;;24.01;32.90;95326.22;5015266;28;1589;-72
2023/01/22 10:52:34;;;;;;;;;;;;;;;24.04;32.65;95324.97;4996748;28;1426;-73
2023/01/22 10:54:59;;;;;;;;;;;;;;;24.05;32.60;95325.78;4992822;28;1537;-71
2023/01/22 10:57:31;;;;;;;;;;;;;;;24.07;32.66;95329.06;4987250;28;1545;-70
2023/01/22 11:00:06;;;;;;;;;;;;;;;24.09;32.59;95316.28;4996252;28;1414;-71
2023/01/22 11:02:33;;;;;;;;;;;;;;;24.10;32.53;95317.91;5011360;28;1515;-71
2023/01/22 11:05:14;;;;;;;;;;;;;;;24.11;32.55;95327.59;4997204;28;844;-71
2023/01/22 11:07:41;;;;;;;;;;;;;;;24.14;32.28;95336.03;4999329;28;1410;-71
2023/01/22 11:10:22;;;;;;;;;;;;;;;24.15;32.28;95337.66;5012474;28;1098;-71
2023/01/22 11:12:56;;;;;;;;;;;;;;;24.17;32.34;95342.81;5002624;28;1377;-71
2023/01/22 11:15:33;;;;;;;;;;;;;;;24.17;32.21;95337.44;4998676;28;1460;-71
2023/01/22 11:18:00;;;;;;;;;;;;;;;24.18;32.29;95337.22;5022308;28;1488;-71
2023/01/22 11:20:37;;;;;;;;;;;;;;;24.18;32.20;95331.03;4987012;28;1432;-71
2023/01/22 11:23:12;;;;;;;;;;;;;;;24.19;32.14;95335.34;4996126;28;1968;-72
2023/01/22 11:25:53;;;;;;;;;;;;;;;24.19;32.13;95332.66;5003539;28;1580;-71
2023/01/22 11:28:18;;;;;;;;;;;;;;;24.25;32.28;95337.16;5013564;28;1418;-73
2023/01/22 11:30:54;;;;;;;;;;;;;;;24.32;32.70;95331.72;5010424;28;1509;-72
2023/01/22 11:33:20;;;;;;;;;;;;;;;24.36;32.97;95325.72;4989637;28;1488;-70
2023/01/22 11:36:05;;;;;;;;;;;;;;;24.37;33.23;95321.97;4995538;28;1219;-70
2023/01/22 11:38:33;;;;;;;;;;;;;;;24.36;33.41;95328.41;4996100;28;1262;-70
2023/01/22 11:41:11;;;;;;;;;;;;;;;24.38;33.28;95336.19;4992907;28;1267;-71
2023/01/22 11:43:54;;;;;;;;;;;;;;;24.38;33.33;95326.28;4992514;28;1906;-69
2023/01/22 11:46:22;;;;;;;;;;;;;;;24.37;33.28;95324.66;5005596;28;1191;-71
2023/01/22 11:48:57;;;;;;;;;;;;;;;24.38;33.37;95322.78;4995419;28;1333;-70
2023/01/22 11:51:27;;;;;;;;;;;;;;;24.38;33.57;95314.75;5010460;28;1216;-71
2023/01/22 11:54:08;;;;;;;;;;;;;;;24.38;33.38;95326.28;4986756;28;1400;-71
2023/01/22 11:56:39;;;;;;;;;;;;;;;24.39;33.43;95325.28;4986429;28;1465;-70
2023/01/22 11:59:14;;;;;;;;;;;;;;;24.40;33.44;95329.59;4989942;28;1400;-70
2023/01/22 12:02:03;;;;;;;;;;;;;;;24.40;33.28;95329.59;5010712;28;1348;-71
2023/01/22 12:04:36;;;;;;;;;;;;;;;24.41;33.22;95327.72;4989719;28;1910;-71
2023/01/22 12:07:28;;;;;;;;;;;;;;;24.41;33.07;95325.84;5006833;28;1362;-71
2023/01/22 12:10:12;;;;;;;;;;;;;;;24.41;33.31;95325.84;4994064;28;1605;-71
2023/01/22 12:13:03;;;;;;;;;;;;;;;24.42;33.05;95327.50;5019366;28;1433;-71
2023/01/22 12:15:41;;;;;;;;;;;;;;;24.42;33.09;95327.50;4977033;28;1490;-71
2023/01/22 12:18:07;;;;;;;;;;;;;;;24.41;33.42;95330.41;5009562;28;1415;-72
2023/01/22 12:20:41;;;;;;;;;;;;;;;24.41;33.23;95327.72;5002483;28;1484;-72
2023/01/22 12:23:20;;;;;;;;;;;;;;;24.40;33.51;95332.25;5010138;28;1906;-72
2023/01/22 12:25:54;;;;;;;;;;;;;;;24.41;33.30;95341.13;5019096;28;1365;-72
2023/01/22 12:28:19;;;;;;;;;;;;;;;24.39;33.24;95338.69;4985813;28;1451;-72
2023/01/22 12:31:03;;;;;;;;;;;;;;;24.40;33.37;95343.00;4993675;28;1425;-72
2023/01/22 12:33:30;;;;;;;;;;;;;;;24.39;33.12;95341.34;5004008;28;1410;-72
2023/01/22 12:36:02;;;;;;;;;;;;;;;24.39;33.27;95338.69;5007964;28;1578;-72
2023/01/22 12:38:41;;;;;;;;;;;;;;;24.38;33.27;95342.38;4990813;28;1645;-72
2023/01/22 12:41:07;;;;;;;;;;;;;;;24.39;33.36;95344.03;4989935;28;1460;-71
2023/01/22 12:43:39;;;;;;;;;;;;;;;24.40;33.27;95350.22;4994131;28;1906;-71
2023/01/22 12:46:10;;;;;;;;;;;;;;;24.40;32.95;95351.03;4994291;28;1661;-71
2023/01/22 12:48:54;;;;;;;;;;;;;;;24.39;33.22;95349.41;4985109;28;1462;-71
2023/01/22 12:51:45;;;;;;;;;;;;;;;24.38;33.00;95355.78;4986079;28;1394;-71
2023/01/22 12:54:18;;;;;;;;;;;;;;;24.36;33.14;95359.72;4988632;28;1390;-71
2023/01/22 12:56:43;;;;;;;;;;;;;;;24.34;32.88;95354.59;4993246;28;1627;-71
2023/01/22 12:59:27;;;;;;;;;;;;;;;24.34;32.89;95356.47;5001150;28;1659;-72
2023/01/22 13:01:57;;;;;;;;;;;;;;;24.29;33.05;95359.81;4999604;28;1565;-71
2023/01/22 13:04:26;;;;;;;;;;;;;;;24.27;33.03;95356.50;4999253;28;1906;-71
2023/01/22 13:07:01;;;;;;;;;;;;;;;24.27;32.86;95361.88;4993480;28;1587;-72